Airfield :
LOGIN :

Register | Disclaimer

   EN    FR    IT 

 










Legend :    VFR   Marginal VFR   IFR   Intensive IFR   Very Intensive IFR
Visi :
Ceiling :
>= 8 km
>= 3000ft
5 to 8 km
1000 to 3000 ft
1500m to 5 km
500 to 1000 ft
800 to 1500m
200 to 500 ft
< 800m
< 200 ft
Symbols :   Thunderstorms  Fog  Heavy snow  Heavy precipitations  Wind > 20 kt
SIGMETs :     Misc.  Thunderstorms  Icing  Turbulence  Mountain Waves  Volcanic Ashes






- Airport Elevation : 220 ft
- IATA code : CWL


EGFF - Cardiff Rhoose

CURRENT METAR :
  • 171820Z AUTO 19007KT 9999 BKN034 18/12 Q1012

EXPIRED METARs :
  • 171750Z AUTO 18007KT 9999 SCT037 18/12 Q1012
  • 171720Z AUTO 19008KT 9999 BKN039 18/12 Q1012
  • 171650Z AUTO 19008KT 9999 NCD 19/13 Q1011
  • 171620Z AUTO 19008KT 160V220 9999 NCD 20/13 Q1011
  • 171550Z AUTO 18007KT 9999 NCD 20/13 Q1011

TAF TAF EGFF
Valid from the 17 at 18:00 until the 18 at 18:00 UTC


171704Z 1718/1818 19008KT 9999 SCT030
TEMPO 1721/1810 8000 RA BKN010
PROB30
TEMPO 1802/1810 3000 BR DZ BKN003
PROB30
TEMPO 1810/1818 8000 SHRA
ATIS : +44 1446 729 319



MET'MAP, your aeronautical weather chart ! - Copyright ORBIFLY December 2007 - Disclaimer

ORBIFLY MET'MAP TEAM :

Programming & Development : Alexandra Zaïnal
Concept & original design : Baudouin d'Aumeries
Assistance for programming : Marc-Olivier Méhu
Technical & hardware support : Manuel Goepfert

Contact : metmap@orbifly.com




SOURCES & CREDITS :

   NOAA